Airfield :
LOGIN :

Register | Disclaimer

   EN    FR    IT 

 










Legend :    VFR   Marginal VFR   IFR   Intensive IFR   Very Intensive IFR
Visi :
Ceiling :
>= 8 km
>= 3000ft
5 to 8 km
1000 to 3000 ft
1500m to 5 km
500 to 1000 ft
800 to 1500m
200 to 500 ft
< 800m
< 200 ft
Symbols :   Thunderstorms  Fog  Heavy snow  Heavy precipitations  Wind > 20 kt
SIGMETs :     Misc.  Thunderstorms  Icing  Turbulence  Mountain Waves  Volcanic Ashes







- Airport Elevation : 125 ft
- IATA code : MGL


EDLN - Mönchengladbach

CURRENT METAR :
  • 241550Z 08007KT 9999 -RA FEW030 BKN061 18/16 Q1016 RERA

EXPIRED METARs :
  • 241520Z 11007KT 070V130 7000 RA BKN036 18/17 Q1017 RETS
  • 241450Z 05009KT 010V100 9999 VCSH SCT032TCU SCT089 22/15 Q1016
  • 241350Z 05007KT 010V110 9999 SCT026TCU SCT090 23/15 Q1017
  • 241320Z 05007KT 020V090 9999 SCT023TCU SCT087 22/16 Q1017

TAF TAF EDLN
Valid from the 24 at 12:00 until the 24 at 21:00 UTC


241100Z 2412/2421 09008KT 9999 SCT040
PROB30
TEMPO 2412/2421 11015G25KT 4500 TSRAGR BKN020CB
No reported NOTAMs for that airfield.



MET'MAP, your aeronautical weather chart ! - Copyright ORBIFLY December 2007 - Disclaimer

ORBIFLY MET'MAP TEAM :

Programming & Development : Alexandra Zaïnal
Concept & Development : Baudouin d'Aumeries
Co-Development & Prog : Marc-Olivier Méhu
Technical & hardware support : Manuel Goepfert

Contact : metmap@orbifly.com




SOURCES & CREDITS :

   NOAA